Terminal Aerodrome Forecast
Issued by NWS

Home | Current Version | Previous Version | Graphics & Text | Print | Product List | Glossary On
Versions: 1 2 3 4 5 6 7 8 9 10 11 12 13 14 15 16 17 18 19 20 21 22 23 24
669
FTUS43 KICT 200201 AAB
TAFRSL
TAF AMD
KRSL 200201Z 2002/2024 11004KT 1SM BR OVC012
      TEMPO 2002/2006 1/2SM FG OVC002
     FM200600 10004KT 1/2SM FG OVC003
     FM200900 06004KT 1/4SM FG OVC003
     FM201500 VRB03KT 1SM BR OVC003
     FM201800 16005KT 5SM BR OVC008
     FM202000 18006KT P6SM OVC012=

USA.gov is the U.S. government's official web portal to all federal, state and local government web resources and services.